sensor_id;sensor_type;location;lat;lon;timestamp;P1;durP1;ratioP1;P2;durP2;ratioP2
78416;SDS011;67715;46.170;6.140;2024-03-25T00:01:19;4.33;;;1.60;;
78416;SDS011;67715;46.170;6.140;2024-03-25T00:03:45;3.43;;;1.80;;
78416;SDS011;67715;46.170;6.140;2024-03-25T00:06:10;3.93;;;1.57;;
78416;SDS011;67715;46.170;6.140;2024-03-25T00:08:35;2.67;;;1.50;;
78416;SDS011;67715;46.170;6.140;2024-03-25T00:11:01;3.97;;;2.03;;
78416;SDS011;67715;46.170;6.140;2024-03-25T00:13:26;3.58;;;2.08;;
78416;SDS011;67715;46.170;6.140;2024-03-25T00:15:51;2.73;;;1.47;;
78416;SDS011;67715;46.170;6.140;2024-03-25T00:18:17;2.70;;;1.83;;
78416;SDS011;67715;46.170;6.140;2024-03-25T00:20:42;4.13;;;2.10;;
78416;SDS011;67715;46.170;6.140;2024-03-25T00:23:08;6.00;;;1.50;;
78416;SDS011;67715;46.170;6.140;2024-03-25T00:25:33;3.50;;;1.33;;
78416;SDS011;67715;46.170;6.140;2024-03-25T00:27:58;3.67;;;1.88;;
78416;SDS011;67715;46.170;6.140;2024-03-25T00:30:24;4.63;;;2.20;;
78416;SDS011;67715;46.170;6.140;2024-03-25T00:32:49;2.85;;;1.77;;
78416;SDS011;67715;46.170;6.140;2024-03-25T00:35:14;4.13;;;2.08;;
78416;SDS011;67715;46.170;6.140;2024-03-25T00:37:40;6.87;;;1.43;;
78416;SDS011;67715;46.170;6.140;2024-03-25T00:40:06;5.13;;;1.73;;
78416;SDS011;67715;46.170;6.140;2024-03-25T00:42:32;3.30;;;1.63;;
78416;SDS011;67715;46.170;6.140;2024-03-25T00:44:57;2.47;;;1.80;;
78416;SDS011;67715;46.170;6.140;2024-03-25T00:47:23;5.53;;;1.77;;
78416;SDS011;67715;46.170;6.140;2024-03-25T00:49:48;2.73;;;1.53;;
78416;SDS011;67715;46.170;6.140;2024-03-25T00:52:13;3.42;;;1.80;;
78416;SDS011;67715;46.170;6.140;2024-03-25T00:54:39;3.47;;;1.70;;
78416;SDS011;67715;46.170;6.140;2024-03-25T00:57:04;2.33;;;1.65;;
78416;SDS011;67715;46.170;6.140;2024-03-25T00:59:29;4.03;;;1.37;;
78416;SDS011;67715;46.170;6.140;2024-03-25T01:01:55;3.90;;;2.47;;
78416;SDS011;67715;46.170;6.140;2024-03-25T01:04:20;2.63;;;1.67;;
78416;SDS011;67715;46.170;6.140;2024-03-25T01:06:45;3.10;;;1.70;;
78416;SDS011;67715;46.170;6.140;2024-03-25T01:09:11;3.60;;;1.80;;
78416;SDS011;67715;46.170;6.140;2024-03-25T01:11:37;2.90;;;1.42;;
78416;SDS011;67715;46.170;6.140;2024-03-25T01:14:02;2.70;;;1.50;;
78416;SDS011;67715;46.170;6.140;2024-03-25T01:16:28;2.47;;;1.63;;
78416;SDS011;67715;46.170;6.140;2024-03-25T01:18:53;2.87;;;1.67;;
78416;SDS011;67715;46.170;6.140;2024-03-25T01:21:18;2.33;;;1.60;;
78416;SDS011;67715;46.170;6.140;2024-03-25T01:23:44;4.03;;;1.77;;
78416;SDS011;67715;46.170;6.140;2024-03-25T01:26:09;2.77;;;1.13;;
78416;SDS011;67715;46.170;6.140;2024-03-25T01:28:35;3.38;;;1.90;;
78416;SDS011;67715;46.170;6.140;2024-03-25T01:31:00;3.03;;;1.73;;
78416;SDS011;67715;46.170;6.140;2024-03-25T01:33:26;3.93;;;1.50;;
78416;SDS011;67715;46.170;6.140;2024-03-25T01:35:51;3.33;;;1.87;;
78416;SDS011;67715;46.170;6.140;2024-03-25T01:38:16;2.60;;;1.45;;
78416;SDS011;67715;46.170;6.140;2024-03-25T01:40:42;2.38;;;1.10;;
78416;SDS011;67715;46.170;6.140;2024-03-25T01:43:07;3.33;;;1.40;;
78416;SDS011;67715;46.170;6.140;2024-03-25T01:45:33;2.33;;;1.20;;
78416;SDS011;67715;46.170;6.140;2024-03-25T01:48:01;2.47;;;1.50;;
78416;SDS011;67715;46.170;6.140;2024-03-25T01:50:28;3.90;;;1.48;;
78416;SDS011;67715;46.170;6.140;2024-03-25T01:52:54;2.17;;;1.42;;
78416;SDS011;67715;46.170;6.140;2024-03-25T01:55:24;1.95;;;1.08;;
78416;SDS011;67715;46.170;6.140;2024-03-25T01:57:51;1.92;;;1.27;;
78416;SDS011;67715;46.170;6.140;2024-03-25T02:00:17;2.22;;;1.38;;
78416;SDS011;67715;46.170;6.140;2024-03-25T02:02:43;4.65;;;1.60;;
78416;SDS011;67715;46.170;6.140;2024-03-25T02:05:12;1.48;;;1.23;;
78416;SDS011;67715;46.170;6.140;2024-03-25T02:07:38;1.60;;;1.13;;
78416;SDS011;67715;46.170;6.140;2024-03-25T02:10:06;2.00;;;1.48;;
78416;SDS011;67715;46.170;6.140;2024-03-25T02:12:32;1.38;;;1.02;;
78416;SDS011;67715;46.170;6.140;2024-03-25T02:14:58;2.00;;;1.17;;
78416;SDS011;67715;46.170;6.140;2024-03-25T02:17:24;3.10;;;1.33;;
78416;SDS011;67715;46.170;6.140;2024-03-25T02:19:49;2.08;;;1.30;;
78416;SDS011;67715;46.170;6.140;2024-03-25T02:22:15;2.25;;;1.20;;
78416;SDS011;67715;46.170;6.140;2024-03-25T02:24:40;2.00;;;1.30;;
78416;SDS011;67715;46.170;6.140;2024-03-25T02:27:06;3.30;;;1.60;;
78416;SDS011;67715;46.170;6.140;2024-03-25T02:29:36;4.43;;;2.33;;
78416;SDS011;67715;46.170;6.140;2024-03-25T02:32:01;1.67;;;1.27;;
78416;SDS011;67715;46.170;6.140;2024-03-25T02:34:26;2.58;;;1.40;;
78416;SDS011;67715;46.170;6.140;2024-03-25T02:36:52;2.50;;;1.30;;
78416;SDS011;67715;46.170;6.140;2024-03-25T02:39:17;2.63;;;1.30;;
78416;SDS011;67715;46.170;6.140;2024-03-25T02:41:43;3.55;;;1.23;;
78416;SDS011;67715;46.170;6.140;2024-03-25T02:44:08;3.30;;;1.20;;
78416;SDS011;67715;46.170;6.140;2024-03-25T02:46:34;1.52;;;1.15;;
78416;SDS011;67715;46.170;6.140;2024-03-25T02:48:59;2.03;;;1.23;;
78416;SDS011;67715;46.170;6.140;2024-03-25T02:51:25;2.03;;;1.20;;
78416;SDS011;67715;46.170;6.140;2024-03-25T02:53:50;1.70;;;1.00;;
78416;SDS011;67715;46.170;6.140;2024-03-25T02:56:16;4.18;;;1.63;;
78416;SDS011;67715;46.170;6.140;2024-03-25T02:58:41;3.37;;;1.63;;
78416;SDS011;67715;46.170;6.140;2024-03-25T03:01:06;2.77;;;1.53;;
78416;SDS011;67715;46.170;6.140;2024-03-25T03:03:32;2.83;;;1.00;;
78416;SDS011;67715;46.170;6.140;2024-03-25T03:05:57;1.63;;;0.90;;
78416;SDS011;67715;46.170;6.140;2024-03-25T03:08:22;2.80;;;1.37;;
78416;SDS011;67715;46.170;6.140;2024-03-25T03:10:48;2.13;;;1.10;;
78416;SDS011;67715;46.170;6.140;2024-03-25T03:13:13;2.70;;;1.10;;
78416;SDS011;67715;46.170;6.140;2024-03-25T03:15:43;3.77;;;1.40;;
78416;SDS011;67715;46.170;6.140;2024-03-25T03:18:08;1.95;;;1.38;;
78416;SDS011;67715;46.170;6.140;2024-03-25T03:20:34;1.80;;;1.10;;
78416;SDS011;67715;46.170;6.140;2024-03-25T03:22:59;3.70;;;1.37;;
78416;SDS011;67715;46.170;6.140;2024-03-25T03:25:24;3.43;;;0.97;;
78416;SDS011;67715;46.170;6.140;2024-03-25T03:27:50;2.93;;;1.60;;
78416;SDS011;67715;46.170;6.140;2024-03-25T03:30:15;3.90;;;1.47;;
78416;SDS011;67715;46.170;6.140;2024-03-25T03:32:40;3.07;;;1.70;;
78416;SDS011;67715;46.170;6.140;2024-03-25T03:35:05;2.77;;;1.40;;
78416;SDS011;67715;46.170;6.140;2024-03-25T03:37:32;1.73;;;0.88;;
78416;SDS011;67715;46.170;6.140;2024-03-25T03:39:57;1.70;;;1.30;;
78416;SDS011;67715;46.170;6.140;2024-03-25T03:42:22;2.93;;;1.37;;
78416;SDS011;67715;46.170;6.140;2024-03-25T03:44:48;4.07;;;1.30;;
78416;SDS011;67715;46.170;6.140;2024-03-25T03:47:13;2.73;;;1.60;;
78416;SDS011;67715;46.170;6.140;2024-03-25T03:49:38;3.70;;;1.80;;
78416;SDS011;67715;46.170;6.140;2024-03-25T03:52:04;2.30;;;1.52;;
78416;SDS011;67715;46.170;6.140;2024-03-25T03:54:29;3.93;;;1.53;;
78416;SDS011;67715;46.170;6.140;2024-03-25T03:56:54;2.33;;;1.03;;
78416;SDS011;67715;46.170;6.140;2024-03-25T03:59:20;4.80;;;2.20;;
78416;SDS011;67715;46.170;6.140;2024-03-25T04:01:45;3.13;;;1.33;;
78416;SDS011;67715;46.170;6.140;2024-03-25T04:04:10;1.87;;;1.13;;
78416;SDS011;67715;46.170;6.140;2024-03-25T04:06:35;2.43;;;1.70;;
78416;SDS011;67715;46.170;6.140;2024-03-25T04:09:01;2.27;;;1.27;;
78416;SDS011;67715;46.170;6.140;2024-03-25T04:11:26;2.33;;;1.60;;
78416;SDS011;67715;46.170;6.140;2024-03-25T04:13:51;1.93;;;1.13;;
78416;SDS011;67715;46.170;6.140;2024-03-25T04:16:17;3.50;;;1.33;;
78416;SDS011;67715;46.170;6.140;2024-03-25T04:18:43;2.20;;;1.23;;
78416;SDS011;67715;46.170;6.140;2024-03-25T04:21:11;3.45;;;1.63;;
78416;SDS011;67715;46.170;6.140;2024-03-25T04:23:37;2.60;;;1.35;;
78416;SDS011;67715;46.170;6.140;2024-03-25T04:26:03;3.17;;;1.70;;
78416;SDS011;67715;46.170;6.140;2024-03-25T04:28:31;5.25;;;1.75;;
78416;SDS011;67715;46.170;6.140;2024-03-25T04:30:56;4.77;;;1.90;;
78416;SDS011;67715;46.170;6.140;2024-03-25T04:33:21;4.37;;;1.47;;
78416;SDS011;67715;46.170;6.140;2024-03-25T04:35:47;3.13;;;1.53;;
78416;SDS011;67715;46.170;6.140;2024-03-25T04:38:12;3.20;;;1.40;;
78416;SDS011;67715;46.170;6.140;2024-03-25T04:40:38;4.57;;;1.70;;
78416;SDS011;67715;46.170;6.140;2024-03-25T04:43:04;2.20;;;1.40;;
78416;SDS011;67715;46.170;6.140;2024-03-25T04:45:30;3.20;;;1.80;;
78416;SDS011;67715;46.170;6.140;2024-03-25T04:47:55;3.13;;;2.08;;
78416;SDS011;67715;46.170;6.140;2024-03-25T04:50:20;6.43;;;2.30;;
78416;SDS011;67715;46.170;6.140;2024-03-25T04:52:46;3.67;;;1.60;;
78416;SDS011;67715;46.170;6.140;2024-03-25T04:55:11;3.37;;;1.40;;
78416;SDS011;67715;46.170;6.140;2024-03-25T04:57:36;2.63;;;1.40;;
78416;SDS011;67715;46.170;6.140;2024-03-25T05:00:02;1.93;;;1.40;;
78416;SDS011;67715;46.170;6.140;2024-03-25T05:02:27;2.72;;;1.60;;
78416;SDS011;67715;46.170;6.140;2024-03-25T05:04:53;2.63;;;1.60;;
78416;SDS011;67715;46.170;6.140;2024-03-25T05:07:18;2.87;;;1.60;;
78416;SDS011;67715;46.170;6.140;2024-03-25T05:09:43;5.07;;;1.77;;
78416;SDS011;67715;46.170;6.140;2024-03-25T05:12:09;2.22;;;1.30;;
78416;SDS011;67715;46.170;6.140;2024-03-25T05:14:35;3.17;;;1.98;;
78416;SDS011;67715;46.170;6.140;2024-03-25T05:17:00;2.33;;;1.70;;
78416;SDS011;67715;46.170;6.140;2024-03-25T05:19:28;3.90;;;1.38;;
78416;SDS011;67715;46.170;6.140;2024-03-25T05:21:53;2.58;;;1.63;;
78416;SDS011;67715;46.170;6.140;2024-03-25T05:24:19;2.37;;;1.60;;
78416;SDS011;67715;46.170;6.140;2024-03-25T05:26:44;3.45;;;1.83;;
78416;SDS011;67715;46.170;6.140;2024-03-25T05:29:09;1.87;;;1.47;;
78416;SDS011;67715;46.170;6.140;2024-03-25T05:31:35;3.13;;;1.43;;
78416;SDS011;67715;46.170;6.140;2024-03-25T05:34:00;2.78;;;1.77;;
78416;SDS011;67715;46.170;6.140;2024-03-25T05:36:27;3.08;;;1.42;;
78416;SDS011;67715;46.170;6.140;2024-03-25T05:38:53;2.25;;;1.63;;
78416;SDS011;67715;46.170;6.140;2024-03-25T05:41:18;2.60;;;1.60;;
78416;SDS011;67715;46.170;6.140;2024-03-25T05:43:43;6.83;;;1.70;;
78416;SDS011;67715;46.170;6.140;2024-03-25T05:46:09;2.80;;;1.83;;
78416;SDS011;67715;46.170;6.140;2024-03-25T05:48:34;5.27;;;1.73;;
78416;SDS011;67715;46.170;6.140;2024-03-25T05:51:03;2.97;;;1.67;;
78416;SDS011;67715;46.170;6.140;2024-03-25T05:53:35;2.25;;;1.83;;
78416;SDS011;67715;46.170;6.140;2024-03-25T05:56:03;8.10;;;2.90;;
78416;SDS011;67715;46.170;6.140;2024-03-25T05:58:28;7.13;;;2.65;;
78416;SDS011;67715;46.170;6.140;2024-03-25T06:00:53;3.30;;;2.23;;
78416;SDS011;67715;46.170;6.140;2024-03-25T06:03:19;3.63;;;2.55;;
78416;SDS011;67715;46.170;6.140;2024-03-25T06:05:45;3.35;;;2.28;;
78416;SDS011;67715;46.170;6.140;2024-03-25T06:08:10;8.98;;;2.47;;
78416;SDS011;67715;46.170;6.140;2024-03-25T06:11:05;4.70;;;1.88;;
78416;SDS011;67715;46.170;6.140;2024-03-25T06:13:31;2.20;;;1.08;;
78416;SDS011;67715;46.170;6.140;2024-03-25T06:15:56;4.43;;;1.63;;
78416;SDS011;67715;46.170;6.140;2024-03-25T06:18:22;3.90;;;1.70;;
78416;SDS011;67715;46.170;6.140;2024-03-25T06:20:47;4.80;;;1.63;;
78416;SDS011;67715;46.170;6.140;2024-03-25T06:23:26;3.40;;;2.33;;
78416;SDS011;67715;46.170;6.140;2024-03-25T06:25:52;6.22;;;2.05;;
78416;SDS011;67715;46.170;6.140;2024-03-25T06:28:19;4.13;;;1.92;;
78416;SDS011;67715;46.170;6.140;2024-03-25T06:30:45;2.63;;;1.80;;
78416;SDS011;67715;46.170;6.140;2024-03-25T06:33:32;3.58;;;2.15;;
78416;SDS011;67715;46.170;6.140;2024-03-25T06:36:16;3.95;;;2.00;;
78416;SDS011;67715;46.170;6.140;2024-03-25T06:38:42;4.32;;;1.80;;
78416;SDS011;67715;46.170;6.140;2024-03-25T06:41:07;2.60;;;2.03;;
78416;SDS011;67715;46.170;6.140;2024-03-25T06:43:33;5.25;;;2.58;;
78416;SDS011;67715;46.170;6.140;2024-03-25T06:45:59;4.13;;;2.25;;
78416;SDS011;67715;46.170;6.140;2024-03-25T06:48:24;5.83;;;3.80;;
78416;SDS011;67715;46.170;6.140;2024-03-25T06:50:55;4.40;;;2.20;;
78416;SDS011;67715;46.170;6.140;2024-03-25T06:53:22;4.53;;;2.78;;
78416;SDS011;67715;46.170;6.140;2024-03-25T06:55:51;7.68;;;2.95;;
78416;SDS011;67715;46.170;6.140;2024-03-25T06:58:17;7.05;;;3.22;;
78416;SDS011;67715;46.170;6.140;2024-03-25T07:00:43;4.25;;;2.70;;
78416;SDS011;67715;46.170;6.140;2024-03-25T07:03:08;4.07;;;2.20;;
78416;SDS011;67715;46.170;6.140;2024-03-25T07:05:34;4.90;;;2.45;;
78416;SDS011;67715;46.170;6.140;2024-03-25T07:07:59;5.95;;;2.75;;
78416;SDS011;67715;46.170;6.140;2024-03-25T07:10:25;4.75;;;2.50;;
78416;SDS011;67715;46.170;6.140;2024-03-25T07:12:50;4.20;;;2.53;;
78416;SDS011;67715;46.170;6.140;2024-03-25T07:15:15;2.97;;;2.43;;
78416;SDS011;67715;46.170;6.140;2024-03-25T07:17:41;6.00;;;2.50;;
78416;SDS011;67715;46.170;6.140;2024-03-25T07:20:06;5.00;;;2.17;;
78416;SDS011;67715;46.170;6.140;2024-03-25T07:22:33;4.03;;;2.05;;
78416;SDS011;67715;46.170;6.140;2024-03-25T07:24:58;4.87;;;2.70;;
78416;SDS011;67715;46.170;6.140;2024-03-25T07:27:24;5.80;;;2.85;;
78416;SDS011;67715;46.170;6.140;2024-03-25T07:29:49;5.40;;;2.63;;
78416;SDS011;67715;46.170;6.140;2024-03-25T07:32:16;6.10;;;2.33;;
78416;SDS011;67715;46.170;6.140;2024-03-25T07:34:41;5.63;;;2.40;;
78416;SDS011;67715;46.170;6.140;2024-03-25T07:37:07;5.63;;;2.30;;
78416;SDS011;67715;46.170;6.140;2024-03-25T07:39:32;4.53;;;2.17;;
78416;SDS011;67715;46.170;6.140;2024-03-25T07:41:57;5.50;;;2.63;;
78416;SDS011;67715;46.170;6.140;2024-03-25T07:44:24;4.45;;;2.50;;
78416;SDS011;67715;46.170;6.140;2024-03-25T07:46:49;6.13;;;2.78;;
78416;SDS011;67715;46.170;6.140;2024-03-25T07:49:15;4.43;;;2.80;;
78416;SDS011;67715;46.170;6.140;2024-03-25T07:51:40;3.63;;;2.40;;
78416;SDS011;67715;46.170;6.140;2024-03-25T07:54:05;5.23;;;2.30;;
78416;SDS011;67715;46.170;6.140;2024-03-25T07:56:31;4.67;;;3.13;;
78416;SDS011;67715;46.170;6.140;2024-03-25T07:58:57;5.10;;;2.45;;
78416;SDS011;67715;46.170;6.140;2024-03-25T08:01:24;4.15;;;2.45;;
78416;SDS011;67715;46.170;6.140;2024-03-25T08:03:50;5.85;;;3.08;;
78416;SDS011;67715;46.170;6.140;2024-03-25T08:06:15;3.90;;;2.30;;
78416;SDS011;67715;46.170;6.140;2024-03-25T08:08:41;6.18;;;2.58;;
78416;SDS011;67715;46.170;6.140;2024-03-25T08:11:06;2.97;;;1.90;;
78416;SDS011;67715;46.170;6.140;2024-03-25T08:13:32;4.00;;;1.90;;
78416;SDS011;67715;46.170;6.140;2024-03-25T08:15:57;4.17;;;2.33;;
78416;SDS011;67715;46.170;6.140;2024-03-25T08:18:23;3.53;;;1.87;;
78416;SDS011;67715;46.170;6.140;2024-03-25T08:20:48;3.03;;;1.73;;
78416;SDS011;67715;46.170;6.140;2024-03-25T08:23:13;3.63;;;1.90;;
78416;SDS011;67715;46.170;6.140;2024-03-25T08:25:39;5.73;;;1.83;;
78416;SDS011;67715;46.170;6.140;2024-03-25T08:28:04;4.73;;;2.23;;
78416;SDS011;67715;46.170;6.140;2024-03-25T08:30:30;3.22;;;1.75;;
78416;SDS011;67715;46.170;6.140;2024-03-25T08:32:55;3.45;;;2.38;;
78416;SDS011;67715;46.170;6.140;2024-03-25T08:35:21;8.25;;;2.38;;
78416;SDS011;67715;46.170;6.140;2024-03-25T08:37:46;3.77;;;2.30;;
78416;SDS011;67715;46.170;6.140;2024-03-25T08:40:11;3.00;;;2.20;;
78416;SDS011;67715;46.170;6.140;2024-03-25T08:42:37;3.43;;;1.90;;
78416;SDS011;67715;46.170;6.140;2024-03-25T08:45:02;4.17;;;1.90;;
78416;SDS011;67715;46.170;6.140;2024-03-25T08:47:28;2.35;;;1.88;;
78416;SDS011;67715;46.170;6.140;2024-03-25T08:49:53;5.27;;;2.10;;
78416;SDS011;67715;46.170;6.140;2024-03-25T08:52:18;3.67;;;2.00;;
78416;SDS011;67715;46.170;6.140;2024-03-25T08:54:44;9.87;;;1.83;;
78416;SDS011;67715;46.170;6.140;2024-03-25T08:57:09;3.65;;;1.80;;
78416;SDS011;67715;46.170;6.140;2024-03-25T08:59:35;4.22;;;1.98;;
78416;SDS011;67715;46.170;6.140;2024-03-25T09:02:00;3.25;;;2.05;;
78416;SDS011;67715;46.170;6.140;2024-03-25T09:04:26;2.73;;;1.77;;
78416;SDS011;67715;46.170;6.140;2024-03-25T09:06:51;3.57;;;2.40;;
78416;SDS011;67715;46.170;6.140;2024-03-25T09:09:16;2.93;;;1.80;;
78416;SDS011;67715;46.170;6.140;2024-03-25T09:12:00;4.00;;;2.00;;
78416;SDS011;67715;46.170;6.140;2024-03-25T09:14:25;3.47;;;2.07;;
78416;SDS011;67715;46.170;6.140;2024-03-25T09:16:51;4.03;;;1.97;;
78416;SDS011;67715;46.170;6.140;2024-03-25T09:19:16;4.37;;;1.80;;
78416;SDS011;67715;46.170;6.140;2024-03-25T09:21:41;4.00;;;1.80;;
78416;SDS011;67715;46.170;6.140;2024-03-25T09:24:07;3.20;;;1.87;;
78416;SDS011;67715;46.170;6.140;2024-03-25T09:26:33;3.47;;;1.88;;
78416;SDS011;67715;46.170;6.140;2024-03-25T09:28:58;6.37;;;2.20;;
78416;SDS011;67715;46.170;6.140;2024-03-25T09:31:23;3.37;;;2.30;;
78416;SDS011;67715;46.170;6.140;2024-03-25T09:33:48;3.07;;;1.60;;
78416;SDS011;67715;46.170;6.140;2024-03-25T09:36:14;3.57;;;1.43;;
78416;SDS011;67715;46.170;6.140;2024-03-25T09:38:39;5.13;;;1.85;;
78416;SDS011;67715;46.170;6.140;2024-03-25T09:41:05;4.53;;;1.50;;
78416;SDS011;67715;46.170;6.140;2024-03-25T09:43:36;4.55;;;1.92;;
78416;SDS011;67715;46.170;6.140;2024-03-25T09:46:04;3.47;;;1.60;;
78416;SDS011;67715;46.170;6.140;2024-03-25T09:48:30;3.83;;;1.55;;
78416;SDS011;67715;46.170;6.140;2024-03-25T09:50:56;3.13;;;1.60;;
78416;SDS011;67715;46.170;6.140;2024-03-25T09:53:21;4.60;;;1.85;;
78416;SDS011;67715;46.170;6.140;2024-03-25T09:55:47;1.92;;;1.30;;
78416;SDS011;67715;46.170;6.140;2024-03-25T09:58:13;2.80;;;1.50;;
78416;SDS011;67715;46.170;6.140;2024-03-25T10:00:39;3.75;;;1.80;;
78416;SDS011;67715;46.170;6.140;2024-03-25T10:03:04;3.37;;;1.60;;
78416;SDS011;67715;46.170;6.140;2024-03-25T10:05:31;2.53;;;1.60;;
78416;SDS011;67715;46.170;6.140;2024-03-25T10:07:57;2.35;;;1.65;;
78416;SDS011;67715;46.170;6.140;2024-03-25T10:10:22;5.60;;;1.83;;
78416;SDS011;67715;46.170;6.140;2024-03-25T10:12:48;2.70;;;2.03;;
78416;SDS011;67715;46.170;6.140;2024-03-25T10:15:16;4.70;;;2.07;;
78416;SDS011;67715;46.170;6.140;2024-03-25T10:17:42;4.75;;;1.92;;
78416;SDS011;67715;46.170;6.140;2024-03-25T10:20:13;4.78;;;1.80;;
78416;SDS011;67715;46.170;6.140;2024-03-25T10:22:42;3.47;;;1.58;;
78416;SDS011;67715;46.170;6.140;2024-03-25T10:25:07;4.75;;;2.15;;
78416;SDS011;67715;46.170;6.140;2024-03-25T10:27:54;2.50;;;1.45;;
78416;SDS011;67715;46.170;6.140;2024-03-25T10:30:22;2.55;;;1.73;;
78416;SDS011;67715;46.170;6.140;2024-03-25T10:32:57;4.28;;;1.98;;
78416;SDS011;67715;46.170;6.140;2024-03-25T10:35:30;3.65;;;1.98;;
78416;SDS011;67715;46.170;6.140;2024-03-25T10:37:58;3.70;;;1.75;;
78416;SDS011;67715;46.170;6.140;2024-03-25T10:40:34;2.15;;;1.50;;
78416;SDS011;67715;46.170;6.140;2024-03-25T10:43:02;2.90;;;1.80;;
78416;SDS011;67715;46.170;6.140;2024-03-25T10:45:30;3.92;;;1.52;;
78416;SDS011;67715;46.170;6.140;2024-03-25T10:47:57;3.80;;;1.75;;
78416;SDS011;67715;46.170;6.140;2024-03-25T10:50:24;2.83;;;1.58;;
78416;SDS011;67715;46.170;6.140;2024-03-25T10:52:53;2.03;;;1.50;;
78416;SDS011;67715;46.170;6.140;2024-03-25T10:55:18;3.85;;;1.55;;
78416;SDS011;67715;46.170;6.140;2024-03-25T10:57:45;3.38;;;1.65;;
78416;SDS011;67715;46.170;6.140;2024-03-25T11:00:11;3.65;;;1.40;;
78416;SDS011;67715;46.170;6.140;2024-03-25T11:02:39;2.38;;;1.45;;
78416;SDS011;67715;46.170;6.140;2024-03-25T11:05:06;1.52;;;0.93;;
78416;SDS011;67715;46.170;6.140;2024-03-25T11:07:32;3.75;;;1.35;;
78416;SDS011;67715;46.170;6.140;2024-03-25T11:10:04;3.03;;;1.20;;
78416;SDS011;67715;46.170;6.140;2024-03-25T11:12:38;5.18;;;1.42;;
78416;SDS011;67715;46.170;6.140;2024-03-25T11:15:05;2.75;;;1.05;;
78416;SDS011;67715;46.170;6.140;2024-03-25T11:17:32;1.58;;;1.00;;
78416;SDS011;67715;46.170;6.140;2024-03-25T11:20:07;2.03;;;0.90;;
78416;SDS011;67715;46.170;6.140;2024-03-25T11:22:35;2.10;;;1.15;;
78416;SDS011;67715;46.170;6.140;2024-03-25T11:25:06;3.53;;;1.27;;
78416;SDS011;67715;46.170;6.140;2024-03-25T11:27:33;2.08;;;0.90;;
78416;SDS011;67715;46.170;6.140;2024-03-25T11:30:00;2.10;;;1.10;;
78416;SDS011;67715;46.170;6.140;2024-03-25T11:32:26;2.13;;;0.70;;
78416;SDS011;67715;46.170;6.140;2024-03-25T11:34:52;2.00;;;0.90;;
78416;SDS011;67715;46.170;6.140;2024-03-25T11:37:17;1.37;;;1.00;;
78416;SDS011;67715;46.170;6.140;2024-03-25T11:39:43;1.40;;;1.00;;
78416;SDS011;67715;46.170;6.140;2024-03-25T11:42:08;0.90;;;0.60;;
78416;SDS011;67715;46.170;6.140;2024-03-25T11:44:37;1.52;;;0.90;;
78416;SDS011;67715;46.170;6.140;2024-03-25T11:47:05;2.25;;;0.93;;
78416;SDS011;67715;46.170;6.140;2024-03-25T11:49:32;1.88;;;0.68;;
78416;SDS011;67715;46.170;6.140;2024-03-25T11:51:58;1.65;;;0.90;;
78416;SDS011;67715;46.170;6.140;2024-03-25T11:54:26;1.35;;;0.90;;
78416;SDS011;67715;46.170;6.140;2024-03-25T11:56:53;2.55;;;1.00;;
78416;SDS011;67715;46.170;6.140;2024-03-25T11:59:19;0.90;;;0.68;;
78416;SDS011;67715;46.170;6.140;2024-03-25T12:01:44;1.53;;;0.87;;
78416;SDS011;67715;46.170;6.140;2024-03-25T12:04:10;2.13;;;0.90;;
78416;SDS011;67715;46.170;6.140;2024-03-25T12:06:36;1.25;;;0.90;;
78416;SDS011;67715;46.170;6.140;2024-03-25T12:09:01;2.78;;;1.27;;
78416;SDS011;67715;46.170;6.140;2024-03-25T12:11:45;2.42;;;0.80;;
78416;SDS011;67715;46.170;6.140;2024-03-25T12:14:11;3.53;;;1.27;;
78416;SDS011;67715;46.170;6.140;2024-03-25T12:16:36;2.15;;;0.90;;
78416;SDS011;67715;46.170;6.140;2024-03-25T12:19:02;2.20;;;1.10;;
78416;SDS011;67715;46.170;6.140;2024-03-25T12:21:27;2.15;;;0.75;;
78416;SDS011;67715;46.170;6.140;2024-03-25T12:23:53;2.83;;;0.73;;
78416;SDS011;67715;46.170;6.140;2024-03-25T12:26:19;1.05;;;0.68;;
78416;SDS011;67715;46.170;6.140;2024-03-25T12:28:45;1.30;;;1.02;;
78416;SDS011;67715;46.170;6.140;2024-03-25T12:31:10;1.37;;;1.00;;
78416;SDS011;67715;46.170;6.140;2024-03-25T12:33:43;1.55;;;1.00;;
78416;SDS011;67715;46.170;6.140;2024-03-25T12:36:09;1.15;;;0.60;;
78416;SDS011;67715;46.170;6.140;2024-03-25T12:38:36;0.77;;;0.52;;
78416;SDS011;67715;46.170;6.140;2024-03-25T12:41:09;1.45;;;0.90;;
78416;SDS011;67715;46.170;6.140;2024-03-25T12:43:35;2.03;;;0.55;;
78416;SDS011;67715;46.170;6.140;2024-03-25T12:46:02;1.33;;;0.80;;
78416;SDS011;67715;46.170;6.140;2024-03-25T12:48:30;0.52;;;0.45;;
78416;SDS011;67715;46.170;6.140;2024-03-25T12:50:55;1.35;;;0.40;;
78416;SDS011;67715;46.170;6.140;2024-03-25T12:53:21;2.60;;;0.80;;
78416;SDS011;67715;46.170;6.140;2024-03-25T12:55:46;1.40;;;0.70;;
78416;SDS011;67715;46.170;6.140;2024-03-25T12:58:12;1.27;;;0.80;;
78416;SDS011;67715;46.170;6.140;2024-03-25T13:00:37;2.38;;;0.75;;
78416;SDS011;67715;46.170;6.140;2024-03-25T13:03:03;1.20;;;0.57;;
78416;SDS011;67715;46.170;6.140;2024-03-25T13:05:29;1.42;;;0.77;;
78416;SDS011;67715;46.170;6.140;2024-03-25T13:07:54;7.18;;;1.83;;
78416;SDS011;67715;46.170;6.140;2024-03-25T13:10:20;2.77;;;0.90;;
78416;SDS011;67715;46.170;6.140;2024-03-25T13:12:45;3.13;;;1.02;;
78416;SDS011;67715;46.170;6.140;2024-03-25T13:15:10;1.50;;;0.80;;
78416;SDS011;67715;46.170;6.140;2024-03-25T13:17:36;3.40;;;0.90;;
78416;SDS011;67715;46.170;6.140;2024-03-25T13:20:01;2.07;;;1.03;;
78416;SDS011;67715;46.170;6.140;2024-03-25T13:22:27;2.65;;;0.95;;
78416;SDS011;67715;46.170;6.140;2024-03-25T13:24:53;2.08;;;0.70;;
78416;SDS011;67715;46.170;6.140;2024-03-25T13:27:19;2.23;;;1.00;;
78416;SDS011;67715;46.170;6.140;2024-03-25T13:29:44;1.83;;;0.80;;
78416;SDS011;67715;46.170;6.140;2024-03-25T13:32:09;2.53;;;0.73;;
78416;SDS011;67715;46.170;6.140;2024-03-25T13:34:34;1.80;;;0.80;;
78416;SDS011;67715;46.170;6.140;2024-03-25T13:37:00;1.53;;;0.63;;
78416;SDS011;67715;46.170;6.140;2024-03-25T13:39:25;1.67;;;0.80;;
78416;SDS011;67715;46.170;6.140;2024-03-25T13:41:51;1.40;;;0.60;;
78416;SDS011;67715;46.170;6.140;2024-03-25T13:44:16;1.23;;;0.70;;
78416;SDS011;67715;46.170;6.140;2024-03-25T13:46:41;3.87;;;0.90;;
78416;SDS011;67715;46.170;6.140;2024-03-25T13:49:06;1.17;;;0.90;;
78416;SDS011;67715;46.170;6.140;2024-03-25T13:51:32;2.03;;;0.70;;
78416;SDS011;67715;46.170;6.140;2024-03-25T13:53:57;1.50;;;0.80;;
78416;SDS011;67715;46.170;6.140;2024-03-25T13:56:22;3.63;;;0.70;;
78416;SDS011;67715;46.170;6.140;2024-03-25T13:58:51;2.93;;;0.90;;
78416;SDS011;67715;46.170;6.140;2024-03-25T14:01:16;2.15;;;0.90;;
78416;SDS011;67715;46.170;6.140;2024-03-25T14:03:42;2.20;;;1.08;;
78416;SDS011;67715;46.170;6.140;2024-03-25T14:06:07;0.95;;;0.80;;
78416;SDS011;67715;46.170;6.140;2024-03-25T14:08:32;1.83;;;0.60;;
78416;SDS011;67715;46.170;6.140;2024-03-25T14:10:58;1.43;;;0.60;;
78416;SDS011;67715;46.170;6.140;2024-03-25T14:13:24;1.02;;;0.50;;
78416;SDS011;67715;46.170;6.140;2024-03-25T14:15:50;1.25;;;0.60;;
78416;SDS011;67715;46.170;6.140;2024-03-25T14:18:16;3.05;;;0.85;;
78416;SDS011;67715;46.170;6.140;2024-03-25T14:20:41;1.50;;;0.70;;
78416;SDS011;67715;46.170;6.140;2024-03-25T14:23:06;0.70;;;0.63;;
78416;SDS011;67715;46.170;6.140;2024-03-25T14:25:32;5.37;;;0.70;;
78416;SDS011;67715;46.170;6.140;2024-03-25T14:27:57;2.47;;;0.80;;
78416;SDS011;67715;46.170;6.140;2024-03-25T14:30:23;1.60;;;0.70;;
78416;SDS011;67715;46.170;6.140;2024-03-25T14:32:48;0.80;;;0.60;;
78416;SDS011;67715;46.170;6.140;2024-03-25T14:35:14;1.00;;;0.50;;
78416;SDS011;67715;46.170;6.140;2024-03-25T14:37:39;1.10;;;0.65;;
78416;SDS011;67715;46.170;6.140;2024-03-25T14:40:05;2.37;;;0.83;;
78416;SDS011;67715;46.170;6.140;2024-03-25T14:42:30;3.35;;;1.23;;